Time;durP1;ratioP1;P1;durP2;ratioP2;P2;SDS_P1;SDS_P2;PMS_P1;PMS_P2;Temp;Humidity;BMP_temperature;BMP_pressure;BME280_temperature;BME280_humidity;BME280_pressure;Samples;Min_cycle;Max_cycle;Signal;HPM_P1;HPM_P2
2022/09/06 00:02:19;;;;;;;2.72;1.40;;;;;;;17.15;41.18;101543.97;5083464;28;20056;-58
2022/09/06 00:04:47;;;;;;;4.40;1.65;;;;;;;17.20;40.80;101537.38;5084745;28;20497;-59
2022/09/06 00:07:14;;;;;;;2.33;1.13;;;;;;;17.23;40.64;101544.28;5082296;28;20512;-58
2022/09/06 00:09:41;;;;;;;2.65;1.10;;;;;;;17.29;41.06;101542.97;5079122;28;20052;-58
2022/09/06 00:12:08;;;;;;;5.20;1.60;;;;;;;17.18;40.98;101544.59;5086664;28;20052;-60
2022/09/06 00:14:35;;;;;;;3.22;1.52;;;;;;;17.12;40.99;101536.22;5090548;28;20055;-57
2022/09/06 00:17:03;;;;;;;2.88;1.05;;;;;;;17.07;41.12;101533.91;5083763;28;20074;-58
2022/09/06 00:19:30;;;;;;;5.47;1.35;;;;;;;17.04;41.65;101539.44;5084403;28;20519;-59
2022/09/06 00:21:57;;;;;;;5.40;1.20;;;;;;;17.05;41.24;101542.94;5081118;28;20074;-59
2022/09/06 00:24:24;;;;;;;1.70;1.00;;;;;;;16.96;41.60;101547.09;5083092;28;20059;-58
2022/09/06 00:26:51;;;;;;;3.50;1.00;;;;;;;16.94;41.41;101541.03;5084046;28;20052;-60
2022/09/06 00:29:18;;;;;;;2.90;1.10;;;;;;;17.00;41.41;101543.25;5085185;28;20051;-59
2022/09/06 00:31:45;;;;;;;3.00;1.02;;;;;;;17.00;41.11;101534.44;5085909;28;20052;-59
2022/09/06 00:34:12;;;;;;;3.33;0.95;;;;;;;16.96;41.25;101529.31;5081353;28;20056;-59
2022/09/06 00:36:40;;;;;;;4.60;1.10;;;;;;;16.94;41.32;101531.25;5086817;28;20060;-59
2022/09/06 00:39:07;;;;;;;2.50;1.30;;;;;;;16.91;41.20;101542.09;5082969;28;20052;-60
2022/09/06 00:41:34;;;;;;;4.43;1.40;;;;;;;16.87;41.55;101537.97;5082682;28;20056;-59
2022/09/06 00:44:01;;;;;;;3.60;1.20;;;;;;;16.73;42.02;101534.59;5076500;28;20059;-57
2022/09/06 00:46:29;;;;;;;2.75;1.20;;;;;;;16.66;42.05;101532.34;5085249;28;20053;-57
2022/09/06 00:49:04;;;;;;;2.08;0.80;;;;;;;16.65;41.86;101529.75;5066910;28;20056;-57
2022/09/06 00:51:32;;;;;;;4.15;0.90;;;;;;;16.74;41.39;101530.97;5068483;28;20074;-58
2022/09/06 00:54:04;;;;;;;1.75;0.80;;;;;;;16.74;41.66;101536.28;5063335;28;20048;-59
2022/09/06 00:56:38;;;;;;;8.98;1.23;;;;;;;16.66;41.64;101532.34;5051544;28;20063;-58
2022/09/06 00:59:06;;;;;;;5.28;1.10;;;;;;;16.59;41.84;101536.38;5064573;28;20060;-59
2022/09/06 01:01:33;;;;;;;5.38;1.13;;;;;;;16.58;42.07;101536.47;5085271;28;20420;-58
2022/09/06 01:04:01;;;;;;;4.55;1.30;;;;;;;16.53;42.09;101538.63;5081548;28;20071;-60
2022/09/06 01:06:43;;;;;;;2.58;1.17;;;;;;;16.50;41.86;101542.31;5060453;28;20131;-60
2022/09/06 01:09:33;;;;;;;4.68;0.90;;;;;;;16.53;41.62;101542.13;5078845;28;20043;-59
2022/09/06 01:12:06;;;;;;;2.42;1.30;;;;;;;16.59;41.68;101539.03;5081929;28;20044;-59
2022/09/06 01:14:51;;;;;;;5.72;0.95;;;;;;;16.53;41.94;101531.47;5081484;28;20062;-59
2022/09/06 01:17:33;;;;;;;1.58;1.08;;;;;;;16.49;42.10;101524.69;5066607;28;20056;-59
2022/09/06 01:20:19;;;;;;;3.53;0.98;;;;;;;16.46;42.06;101522.22;5077953;28;20063;-61
2022/09/06 01:23:04;;;;;;;;;;;;;;;16.37;42.58;101521.06;5082511;28;20063;-56
2022/09/06 01:25:41;;;;;;;1.80;1.00;;;;;;;16.26;42.82;101525.41;5078767;28;19928;-59
2022/09/06 01:28:38;;;;;;;4.03;1.20;;;;;;;16.16;42.91;101528.66;5063608;28;20047;-59
2022/09/06 01:31:30;;;;;;;2.10;0.98;;;;;;;16.14;43.35;101525.28;5060234;28;20051;-58
2022/09/06 01:34:06;;;;;;;2.67;1.00;;;;;;;16.12;43.24;101528.97;5061069;28;20066;-57
2022/09/06 01:36:57;;;;;;;4.85;1.02;;;;;;;16.17;42.72;101524.25;5084945;28;20056;-59
2022/09/06 01:39:40;;;;;;;4.43;0.88;;;;;;;16.16;43.08;101518.03;5081185;28;20083;-58
2022/09/06 01:42:19;;;;;;;2.78;0.88;;;;;;;16.05;43.46;101522.41;5085834;28;20048;-58
2022/09/06 01:45:14;;;;;;;3.78;1.10;;;;;;;15.97;43.93;101520.25;5059604;28;20136;-60
2022/09/06 01:47:44;;;;;;;2.92;0.93;;;;;;;15.99;43.93;101518.38;5060268;28;20056;-59
2022/09/06 01:50:29;;;;;;;4.95;1.20;;;;;;;16.05;43.05;101517.94;5086191;28;20052;-60
2022/09/06 01:53:33;;;;;;;2.47;0.88;;;;;;;16.07;43.59;101510.72;5074440;28;20120;-60
2022/09/06 01:56:07;;;;;;;1.90;0.75;;;;;;;16.11;43.62;101509.53;5077091;28;20059;-58
2022/09/06 01:58:40;;;;;;;6.25;1.00;;;;;;;16.09;43.92;101513.28;5050601;28;20052;-57
2022/09/06 02:01:22;;;;;;;7.45;1.10;;;;;;;16.14;43.39;101509.34;5075208;28;20044;-59
2022/09/06 02:04:23;;;;;;;6.53;1.23;;;;;;;16.13;43.58;101501.50;5083867;28;20058;-56
2022/09/06 02:06:59;;;;;;;3.17;1.20;;;;;;;16.16;43.54;101509.22;5049852;28;20151;-59
2022/09/06 02:09:26;;;;;;;;;;;;;;;16.16;43.46;101512.72;5065229;28;20614;-59
2022/09/06 02:11:56;;;;;;;1.58;1.00;;;;;;;16.10;43.50;101513.16;5084806;28;19926;-62
2022/09/06 02:14:34;;;;;;;3.25;1.20;;;;;;;16.02;44.11;101512.81;5083965;28;20056;-58
2022/09/06 02:17:02;;;;;;;3.60;1.20;;;;;;;15.98;43.88;101502.50;5077060;28;20135;-60
2022/09/06 02:19:36;;;;;;;4.38;1.10;;;;;;;15.93;43.83;101510.78;5059222;28;20045;-59
2022/09/06 02:22:06;;;;;;;5.13;1.05;;;;;;;15.94;44.35;101500.09;5083957;28;20280;-56
2022/09/06 02:24:36;;;;;;;2.28;0.82;;;;;;;15.87;44.57;101508.56;5081215;28;20052;-59
2022/09/06 02:27:03;;;;;;;3.35;1.20;;;;;;;15.86;43.75;101509.53;5062989;28;20048;-56
2022/09/06 02:29:30;;;;;;;2.13;0.95;;;;;;;15.90;44.08;101509.22;5073405;28;20067;-61
2022/09/06 02:32:02;;;;;;;1.75;0.98;;;;;;;15.90;43.90;101497.75;5066662;28;20040;-57
2022/09/06 02:34:29;;;;;;;4.07;1.10;;;;;;;15.92;44.63;101506.44;5058384;28;20054;-59
2022/09/06 02:36:56;;;;;;;3.63;0.95;;;;;;;15.93;43.90;101505.47;5056531;28;20147;-58
2022/09/06 02:39:23;;;;;;;4.60;1.23;;;;;;;15.91;44.71;101491.47;5082318;28;20525;-59
2022/09/06 02:41:51;;;;;;;1.80;1.10;;;;;;;15.95;44.75;101492.97;5080840;28;20135;-60
2022/09/06 02:44:18;;;;;;;5.20;1.05;;;;;;;15.91;44.72;101497.63;5082617;28;20052;-58
2022/09/06 02:46:45;;;;;;;2.65;0.88;;;;;;;15.89;44.40;101499.53;5085848;28;20067;-59
2022/09/06 02:49:13;;;;;;;2.72;1.20;;;;;;;15.83;44.98;101507.06;5078168;28;20070;-60
2022/09/06 02:51:40;;;;;;;6.63;1.15;;;;;;;15.84;44.53;101498.97;5080986;28;20463;-57
2022/09/06 02:54:07;;;;;;;3.58;1.10;;;;;;;15.88;44.69;101508.44;5078053;28;20358;-59
2022/09/06 02:56:35;;;;;;;4.30;1.27;;;;;;;15.81;45.34;101517.78;5080116;28;20055;-58
2022/09/06 02:59:05;;;;;;;4.20;1.20;;;;;;;15.82;45.02;101516.00;5066922;28;20056;-59
2022/09/06 03:01:33;;;;;;;3.45;1.13;;;;;;;15.83;44.93;101510.56;5080467;28;20048;-57
2022/09/06 03:04:01;;;;;;;2.78;1.10;;;;;;;15.80;45.41;101513.41;5084190;28;20058;-57
2022/09/06 03:06:29;;;;;;;5.18;1.30;;;;;;;15.73;46.74;101512.13;5076528;28;20530;-56
2022/09/06 03:08:58;;;;;;;3.75;1.15;;;;;;;15.73;46.00;101514.78;5062020;28;20051;-55
2022/09/06 03:11:26;;;;;;;3.05;1.23;;;;;;;15.68;47.60;101503.63;5083841;28;20135;-57
2022/09/06 03:13:53;;;;;;;2.75;1.10;;;;;;;15.60;46.63;101503.25;5083388;28;20052;-59
2022/09/06 03:16:21;;;;;;;6.15;1.17;;;;;;;15.61;47.03;101504.94;5086712;28;20052;-58
2022/09/06 03:18:48;;;;;;;1.75;0.80;;;;;;;15.64;46.66;101502.97;5076864;28;20052;-56
2022/09/06 03:21:15;;;;;;;3.45;1.20;;;;;;;15.63;47.15;101495.09;5078164;28;20056;-59
2022/09/06 03:23:43;;;;;;;4.25;1.08;;;;;;;15.57;47.27;101496.31;5083096;28;20048;-56
2022/09/06 03:26:11;;;;;;;5.05;1.20;;;;;;;15.62;46.89;101496.88;5079849;28;20055;-56
2022/09/06 03:28:38;;;;;;;4.72;1.10;;;;;;;15.56;47.97;101499.94;5085059;28;20129;-58
2022/09/06 03:31:05;;;;;;;4.07;1.30;;;;;;;15.58;47.49;101498.06;5077782;28;20311;-60
2022/09/06 03:33:32;;;;;;;2.55;0.90;;;;;;;15.58;47.17;101495.41;5081436;28;20090;-59
2022/09/06 03:36:01;;;;;;;3.90;1.30;;;;;;;15.60;46.96;101495.28;5081149;28;20052;-58
2022/09/06 03:38:29;;;;;;;4.30;1.13;;;;;;;15.58;47.05;101492.75;5076596;28;20063;-59
2022/09/06 03:40:56;;;;;;;2.17;1.02;;;;;;;15.59;47.22;101485.63;5078667;28;20059;-55
2022/09/06 03:43:24;;;;;;;2.70;1.00;;;;;;;15.61;47.51;101487.22;5079880;28;20033;-61
2022/09/06 03:45:54;;;;;;;2.58;1.08;;;;;;;15.66;48.25;101485.13;5079918;28;20051;-56
2022/09/06 03:48:23;;;;;;;3.83;1.33;;;;;;;15.50;48.66;101487.09;5061701;28;20048;-57
2022/09/06 03:50:53;;;;;;;2.65;1.23;;;;;;;15.40;49.10;101491.28;5079266;28;20048;-60
2022/09/06 03:53:21;;;;;;;1.40;0.82;;;;;;;15.39;49.24;101489.56;5078340;28;20520;-59
2022/09/06 03:55:50;;;;;;;3.45;1.10;;;;;;;15.37;48.74;101486.19;5077872;28;20389;-58
2022/09/06 03:58:19;;;;;;;4.78;1.40;;;;;;;15.32;49.56;101489.13;5079103;28;20101;-57
2022/09/06 04:00:47;;;;;;;3.67;1.48;;;;;;;15.34;48.49;101491.69;5080879;28;20052;-56
2022/09/06 04:03:14;;;;;;;2.17;1.20;;;;;;;15.45;48.60;101494.50;5082375;28;20056;-54
2022/09/06 04:05:45;;;;;;;2.47;1.00;;;;;;;15.48;49.02;101493.44;5073784;28;20047;-59
2022/09/06 04:08:12;;;;;;;4.38;1.40;;;;;;;15.39;48.51;101490.41;5076873;28;20076;-57
2022/09/06 04:10:39;;;;;;;3.10;0.95;;;;;;;15.36;48.89;101495.09;5075783;28;20044;-57
2022/09/06 04:13:06;;;;;;;2.85;1.08;;;;;;;15.36;48.80;101489.78;5076319;28;20523;-58
2022/09/06 04:15:34;;;;;;;3.25;1.13;;;;;;;15.39;49.47;101481.63;5078359;28;20068;-57
2022/09/06 04:18:01;;;;;;;3.72;1.00;;;;;;;15.38;48.91;101485.22;5078243;28;20079;-59
2022/09/06 04:20:35;;;;;;;4.43;1.33;;;;;;;15.40;48.14;101488.63;5081426;28;20056;-56
2022/09/06 04:23:02;;;;;;;2.70;1.20;;;;;;;15.40;48.42;101484.19;5080539;28;20072;-59
2022/09/06 04:25:30;;;;;;;3.65;1.05;;;;;;;15.38;49.23;101486.06;5041871;28;20040;-55
2022/09/06 04:27:57;;;;;;;2.50;1.00;;;;;;;15.29;50.09;101481.38;5077428;28;20048;-57
2022/09/06 04:30:24;;;;;;;4.68;1.30;;;;;;;15.22;50.24;101482.75;5088294;28;20049;-59
2022/09/06 04:32:52;;;;;;;4.10;1.63;;;;;;;15.25;49.42;101485.16;5076004;28;20047;-58
2022/09/06 04:35:19;;;;;;;2.10;1.00;;;;;;;15.23;49.66;101481.78;5084416;28;20073;-60
2022/09/06 04:37:46;;;;;;;4.05;1.50;;;;;;;15.25;50.61;101473.72;5084324;28;20063;-58
2022/09/06 04:40:13;;;;;;;3.70;1.05;;;;;;;15.22;49.88;101479.22;5076074;22;20067;-66
2022/09/06 04:42:40;;;;;;;6.00;1.70;;;;;;;15.32;49.21;101480.34;5048660;28;20056;-66
2022/09/06 04:45:08;;;;;;;8.38;1.63;;;;;;;15.19;50.58;101478.47;5044629;28;20047;-68
2022/09/06 04:47:35;;;;;;;3.10;1.50;;;;;;;15.11;50.88;101478.09;5046114;28;20049;-65
2022/09/06 04:50:03;;;;;;;2.22;1.38;;;;;;;15.13;51.07;101464.72;5027613;28;20521;-66
2022/09/06 04:52:30;;;;;;;3.25;1.25;;;;;;;15.13;50.07;101470.03;5039217;28;20060;-65
2022/09/06 04:54:57;;;;;;;5.63;1.42;;;;;;;15.13;50.48;101473.56;5043817;28;20067;-66
2022/09/06 04:57:24;;;;;;;3.75;1.30;;;;;;;15.19;50.58;101462.56;5045549;28;20497;-66
2022/09/06 04:59:51;;;;;;;2.75;0.90;;;;;;;15.09;51.21;101464.09;5040727;28;20584;-66
2022/09/06 05:02:19;;;;;;;8.20;1.73;;;;;;;15.03;52.00;101455.69;5044502;28;20057;-66
2022/09/06 05:04:46;;;;;;;4.65;1.50;;;;;;;14.93;51.82;101464.22;5026430;28;20037;-66
2022/09/06 05:07:13;;;;;;;2.67;1.10;;;;;;;14.90;51.96;101461.78;5047119;28;20440;-66
2022/09/06 05:09:40;;;;;;;4.55;1.30;;;;;;;14.88;51.51;101465.47;5040595;28;20057;-66
2022/09/06 05:12:07;;;;;;;1.27;0.90;;;;;;;14.95;52.20;101458.84;5040557;28;20053;-65
2022/09/06 05:14:35;;;;;;;3.80;1.48;;;;;;;14.97;51.20;101456.09;5044038;28;20401;-65
2022/09/06 05:17:02;;;;;;;4.68;1.05;;;;;;;14.96;51.50;101451.75;5040425;28;20052;-65
2022/09/06 05:19:29;;;;;;;5.68;1.00;;;;;;;14.91;51.40;101452.88;5042072;28;20057;-65
2022/09/06 05:21:57;;;;;;;5.35;1.27;;;;;;;14.88;52.17;101449.56;5036798;28;20053;-68
2022/09/06 05:24:24;;;;;;;2.78;1.23;;;;;;;14.87;51.74;101450.53;5042561;28;20135;-66
2022/09/06 05:26:51;;;;;;;3.58;1.52;;;;;;;14.88;52.61;101452.22;5046875;28;20053;-66
2022/09/06 05:29:18;;;;;;;5.90;1.38;;;;;;;14.93;50.98;101455.41;5025873;28;20425;-66
2022/09/06 05:31:45;;;;;;;2.85;1.20;;;;;;;14.99;50.72;101452.38;5045627;28;20053;-65
2022/09/06 05:34:13;;;;;;;5.78;1.25;;;;;;;14.95;52.44;101448.25;5026158;28;20049;-66
2022/09/06 05:36:41;;;;;;;3.05;1.30;;;;;;;14.96;52.09;101457.03;5042121;28;20055;-66
2022/09/06 05:39:08;;;;;;;3.63;1.30;;;;;;;15.01;51.47;101447.00;5024070;28;20151;-66
2022/09/06 05:41:35;;;;;;;4.00;1.40;;;;;;;15.12;51.70;101449.78;5040491;28;20053;-66
2022/09/06 05:44:03;;;;;;;6.47;1.40;;;;;;;15.21;50.50;101446.53;5039259;28;20127;-66
2022/09/06 05:46:30;;;;;;;2.25;1.23;;;;;;;15.16;52.13;101452.13;5042937;28;20045;-65
2022/09/06 05:49:03;;;;;;;5.47;1.30;;;;;;;15.18;50.95;101452.91;5042901;28;20060;-66
2022/09/06 05:51:31;;;;;;;5.70;1.75;;;;;;;15.24;51.38;101464.91;5046243;28;20057;-65
2022/09/06 05:53:58;;;;;;;2.85;1.10;;;;;;;15.22;51.56;101461.53;5026483;28;20045;-64
2022/09/06 05:56:25;;;;;;;4.13;1.60;;;;;;;15.23;51.16;101459.72;5039022;28;20062;-65
2022/09/06 05:58:53;;;;;;;6.82;1.42;;;;;;;15.31;51.25;101466.22;5045310;28;20068;-64
2022/09/06 06:01:22;;;;;;;4.45;1.42;;;;;;;15.29;51.37;101469.91;5027855;28;20075;-64
2022/09/06 06:03:51;;;;;;;3.50;1.30;;;;;;;15.34;51.28;101462.50;5027093;28;20049;-64
2022/09/06 06:06:19;;;;;;;4.88;1.30;;;;;;;15.38;51.42;101461.34;5040265;28;20055;-67
2022/09/06 06:08:46;;;;;;;5.80;1.27;;;;;;;15.39;51.33;101463.03;5044953;28;20049;-65
2022/09/06 06:11:14;;;;;;;6.43;1.33;;;;;;;15.37;51.35;101457.84;5030559;28;20049;-65
2022/09/06 06:13:42;;;;;;;5.10;1.08;;;;;;;15.41;50.69;101458.50;5027433;28;20064;-64
2022/09/06 06:16:11;;;;;;;5.00;1.40;;;;;;;15.47;51.02;101460.75;5012274;28;20064;-64
2022/09/06 06:18:39;;;;;;;2.58;1.17;;;;;;;15.47;51.70;101444.81;5036906;28;20045;-65
2022/09/06 06:21:13;;;;;;;2.58;1.20;;;;;;;15.45;50.79;101430.81;5047496;28;20049;-65
2022/09/06 06:23:42;;;;;;;3.95;1.20;;;;;;;15.48;51.46;101435.91;5045921;28;20068;-65
2022/09/06 06:26:10;;;;;;;3.80;1.33;;;;;;;15.52;51.15;101436.56;5025183;28;20048;-65
2022/09/06 06:28:39;;;;;;;7.10;1.35;;;;;;;15.52;50.57;101432.09;5041078;28;20056;-65
2022/09/06 06:31:08;;;;;;;3.45;1.40;;;;;;;15.52;50.42;101434.75;5041293;28;20056;-65
2022/09/06 06:33:35;;;;;;;7.05;1.23;;;;;;;15.52;51.41;101429.44;5036584;28;20064;-65
2022/09/06 06:36:12;;;;;;;3.17;1.40;;;;;;;15.62;50.87;101441.13;5047874;28;20049;-65
2022/09/06 06:38:41;;;;;;;3.15;1.70;;;;;;;15.65;50.50;101440.13;5044337;28;20045;-66
2022/09/06 06:41:10;;;;;;;4.80;1.30;;;;;;;15.67;50.64;101436.44;5029782;28;20052;-66
2022/09/06 06:43:38;;;;;;;3.90;1.30;;;;;;;15.78;50.56;101438.34;5025096;28;20057;-64
2022/09/06 06:46:09;;;;;;;5.20;1.42;;;;;;;15.76;50.81;101436.72;5027376;28;20047;-65
2022/09/06 06:48:40;;;;;;;4.28;1.20;;;;;;;15.78;50.46;101438.34;5043584;28;20052;-66
2022/09/06 06:51:12;;;;;;;6.78;1.58;;;;;;;15.83;50.63;101438.88;5042095;28;20282;-66
2022/09/06 06:53:40;;;;;;;2.17;1.13;;;;;;;15.92;50.75;101435.59;5030398;28;20053;-66
2022/09/06 06:56:23;;;;;;;2.47;1.10;;;;;;;15.98;50.31;101434.31;5038504;28;20053;-66
2022/09/06 06:58:52;;;;;;;5.57;1.45;;;;;;;16.05;50.31;101440.91;5027572;28;20079;-66
2022/09/06 07:01:21;;;;;;;6.47;1.33;;;;;;;16.18;49.66;101438.25;5026304;28;20048;-65
2022/09/06 07:03:48;;;;;;;3.17;1.35;;;;;;;16.24;49.73;101439.63;5025489;28;20048;-63
2022/09/06 07:06:16;;;;;;;8.80;1.60;;;;;;;16.24;49.75;101435.16;5041183;28;20064;-66
2022/09/06 07:08:44;;;;;;;5.43;1.50;;;;;;;16.30;50.12;101433.88;5039566;28;20049;-66
2022/09/06 07:11:13;;;;;;;5.20;1.60;;;;;;;16.37;49.63;101425.38;5024378;28;20056;-65
2022/09/06 07:13:40;;;;;;;5.00;1.70;;;;;;;16.42;49.96;101422.41;5041556;28;20072;-66
2022/09/06 07:16:12;;;;;;;3.60;1.65;;;;;;;16.36;49.97;101429.00;5036391;28;20053;-65
2022/09/06 07:18:44;;;;;;;9.82;1.60;;;;;;;16.41;49.58;101421.56;5041920;28;20069;-65
2022/09/06 07:21:13;;;;;;;9.93;1.50;;;;;;;16.49;50.16;101422.84;5047163;28;20061;-65
2022/09/06 07:24:01;;;;;;;3.88;1.50;;;;;;;16.62;49.34;101427.16;5044321;28;20071;-66
2022/09/06 07:26:31;;;;;;;5.85;1.42;;;;;;;16.66;50.06;101433.97;5039574;28;20057;-65
2022/09/06 07:29:01;;;;;;;5.40;1.85;;;;;;;16.77;50.00;101445.66;5037075;28;20071;-65
2022/09/06 07:31:30;;;;;;;5.45;1.45;;;;;;;16.80;49.86;101442.78;5043971;28;20513;-65
2022/09/06 07:34:17;;;;;;;3.83;1.83;;;;;;;16.82;49.56;101441.69;5028362;28;20063;-65
2022/09/06 07:36:44;;;;;;;7.25;1.48;;;;;;;16.88;49.85;101440.41;5041218;28;20049;-63
2022/09/06 07:39:11;;;;;;;2.58;1.65;;;;;;;16.92;50.26;101434.75;5041238;28;20057;-66
2022/09/06 07:41:38;;;;;;;7.20;1.70;;;;;;;17.05;49.61;101436.53;5047452;28;20044;-64
2022/09/06 07:44:05;;;;;;;4.75;1.77;;;;;;;17.05;50.50;101447.16;5039047;28;20061;-66
2022/09/06 07:46:33;;;;;;;3.50;1.50;;;;;;;17.06;50.23;101455.03;5020265;28;20401;-64
2022/09/06 07:49:03;;;;;;;4.15;1.90;;;;;;;17.16;49.77;101449.91;5042208;28;20041;-65
2022/09/06 07:51:31;;;;;;;3.72;1.60;;;;;;;17.27;49.60;101446.44;5044001;28;20057;-64
2022/09/06 07:53:58;;;;;;;4.40;1.85;;;;;;;17.33;49.82;101437.97;5042188;28;20034;-66
2022/09/06 07:56:45;;;;;;;4.65;1.83;;;;;;;17.42;49.52;101432.81;5026698;28;20045;-65
2022/09/06 07:59:13;;;;;;;6.22;2.28;;;;;;;17.49;49.66;101424.41;5042141;28;20398;-65
2022/09/06 08:01:40;;;;;;;7.07;1.90;;;;;;;17.52;49.52;101426.84;5020624;28;20096;-64
2022/09/06 08:04:11;;;;;;;6.30;1.70;;;;;;;17.60;49.46;101432.41;5025364;28;20049;-65
2022/09/06 08:06:43;;;;;;;4.15;1.88;;;;;;;17.65;49.56;101427.56;5043842;28;20041;-66
2022/09/06 08:09:31;;;;;;;3.63;1.73;;;;;;;17.71;49.76;101419.13;5043553;28;20053;-65
2022/09/06 08:12:00;;;;;;;7.30;1.80;;;;;;;17.75;49.54;101419.78;5043003;28;20053;-65
2022/09/06 08:14:27;;;;;;;5.93;1.60;;;;;;;17.83;50.05;101428.03;5044189;28;20493;-65
2022/09/06 08:16:54;;;;;;;5.50;2.28;;;;;;;17.93;49.53;101429.88;5046136;28;20064;-66
2022/09/06 08:19:22;;;;;;;12.05;1.83;;;;;;;17.95;49.58;101427.09;5044474;28;20061;-65
2022/09/06 08:21:54;;;;;;;3.47;1.58;;;;;;;18.05;49.42;101432.53;5046043;28;20428;-65
2022/09/06 08:24:21;;;;;;;5.43;1.50;;;;;;;18.16;49.15;101427.25;5038787;28;20052;-65
2022/09/06 08:26:49;;;;;;;3.22;1.80;;;;;;;18.26;49.30;101427.38;5045285;28;20049;-66
2022/09/06 08:29:17;;;;;;;7.47;2.25;;;;;;;18.36;49.23;101426.50;5043656;28;20063;-65
2022/09/06 08:31:45;;;;;;;4.38;1.75;;;;;;;18.35;49.36;101427.50;5046026;28;20136;-66
2022/09/06 08:34:13;;;;;;;4.68;2.13;;;;;;;18.29;49.47;101427.97;5023955;28;20061;-65
2022/09/06 08:36:41;;;;;;;5.50;1.58;;;;;;;18.28;49.86;101426.28;5044506;28;20068;-64
2022/09/06 08:39:08;;;;;;;5.72;1.92;;;;;;;18.34;49.87;101436.47;5029800;28;20457;-65
2022/09/06 08:42:02;;;;;;;6.78;2.58;;;;;;;18.44;49.25;101418.75;5049286;28;20060;-65
2022/09/06 08:44:46;;;;;;;4.40;2.10;;;;;;;18.52;49.56;101425.31;5026559;28;20045;-64
2022/09/06 08:47:23;;;;;;;5.63;2.30;;;;;;;18.54;49.60;101426.03;5032765;28;20049;-65
2022/09/06 08:49:53;;;;;;;6.22;1.88;;;;;;;18.56;49.28;101426.78;5045836;28;20107;-66
2022/09/06 08:52:46;;;;;;;4.07;2.00;;;;;;;18.63;49.21;101423.47;5027367;28;20061;-65
2022/09/06 08:55:41;;;;;;;6.20;1.95;;;;;;;18.71;49.27;101421.06;5044638;28;20057;-63
2022/09/06 08:58:20;;;;;;;;;;;;;;;18.76;48.85;101423.38;5026814;28;20537;-66
2022/09/06 09:00:57;;;;;;;4.18;1.85;;;;;;;18.80;49.10;101413.31;5042617;28;19928;-66
2022/09/06 09:03:32;;;;;;;6.53;2.20;;;;;;;18.83;49.09;101416.56;5028941;28;20056;-66
2022/09/06 09:06:02;;;;;;;8.27;2.25;;;;;;;18.87;49.25;101414.50;5028321;28;20068;-66
2022/09/06 09:08:51;;;;;;;6.70;3.47;;;;;;;18.99;48.86;101410.81;5029876;28;20224;-66
2022/09/06 09:11:20;;;;;;;3.55;1.63;;;;;;;19.03;48.73;101404.25;5016530;28;20143;-66
2022/09/06 09:13:58;;;;;;;6.50;1.85;;;;;;;19.11;48.55;101400.97;5030306;28;20429;-65
2022/09/06 09:16:25;;;;;;;5.00;2.20;;;;;;;19.23;48.87;101407.97;5045076;28;20573;-66
2022/09/06 09:18:55;;;;;;;6.70;2.20;;;;;;;19.24;48.86;101401.66;5043569;28;20058;-65
2022/09/06 09:21:24;;;;;;;4.20;2.22;;;;;;;19.39;48.54;101402.19;5042761;28;20063;-64
2022/09/06 09:24:06;;;;;;;5.97;2.10;;;;;;;19.40;48.27;101398.53;5045045;28;20045;-65
2022/09/06 09:26:55;;;;;;;5.18;1.75;;;;;;;19.52;47.91;101397.50;5023978;28;20529;-63
2022/09/06 09:29:22;;;;;;;4.72;1.98;;;;;;;19.60;47.57;101400.41;5027061;28;20060;-65
2022/09/06 09:31:55;;;;;;;5.30;2.05;;;;;;;19.67;47.53;101395.38;5047950;28;20128;-66
2022/09/06 09:34:32;;;;;;;7.72;2.22;;;;;;;19.67;47.59;101382.88;5040926;28;20064;-64
2022/09/06 09:37:20;;;;;;;8.48;2.10;;;;;;;19.70;47.66;101379.94;5041046;28;20535;-66
2022/09/06 09:40:28;;;;;;;7.72;2.40;;;;;;;19.83;47.36;101378.91;5026881;28;20056;-66
2022/09/06 09:43:08;;;;;;;6.97;2.28;;;;;;;19.92;47.27;101378.13;5042774;28;20048;-66
2022/09/06 09:45:35;;;;;;;5.13;1.98;;;;;;;20.05;47.49;101376.06;5030984;28;20053;-64
2022/09/06 09:48:19;;;;;;;10.30;2.30;;;;;;;20.07;47.20;101368.75;5045833;28;20057;-66
2022/09/06 09:50:46;;;;;;;11.10;2.80;;;;;;;20.07;46.62;101359.88;5026525;28;20144;-66
2022/09/06 09:53:17;;;;;;;7.82;2.65;;;;;;;20.06;46.93;101356.38;5046196;28;20071;-66
2022/09/06 09:55:45;;;;;;;10.13;2.45;;;;;;;20.12;46.39;101349.63;5041501;28;20528;-66
2022/09/06 09:58:29;;;;;;;6.25;2.15;;;;;;;20.12;46.60;101345.13;5026168;28;20744;-64
2022/09/06 10:01:11;;;;;;;5.28;2.15;;;;;;;20.14;46.22;101345.88;5026699;28;20064;-66
2022/09/06 10:03:38;;;;;;;7.20;2.38;;;;;;;20.18;46.21;101346.44;5043700;28;20049;-66
2022/09/06 10:06:26;;;;;;;6.35;2.20;;;;;;;20.21;46.25;101346.16;5019397;28;20061;-66
2022/09/06 10:09:22;;;;;;;9.68;2.25;;;;;;;20.31;46.35;101354.19;5036780;28;20057;-64
2022/09/06 10:11:55;;;;;;;9.95;2.22;;;;;;;20.40;45.98;101342.72;5034086;28;20049;-66
2022/09/06 10:14:31;;;;;;;6.20;2.10;;;;;;;20.46;46.31;101334.13;5031522;28;20441;-66
2022/09/06 10:16:59;;;;;;;8.00;2.70;;;;;;;20.51;46.04;101339.94;5029954;28;20045;-66
2022/09/06 10:19:41;;;;;;;7.80;2.72;;;;;;;20.60;46.23;101339.13;5026108;28;20502;-66
2022/09/06 10:22:26;;;;;;;6.05;2.45;;;;;;;20.65;45.57;101336.03;5033224;28;20060;-65
2022/09/06 10:25:12;;;;;;;8.57;2.80;;;;;;;20.67;45.93;101340.28;5043586;28;20079;-66
2022/09/06 10:27:54;;;;;;;7.43;2.55;;;;;;;20.73;45.54;101336.19;5030093;28;20409;-66
2022/09/06 10:31:05;;;;;;;8.15;2.40;;;;;;;20.69;45.52;101334.78;5032954;28;20053;-65
2022/09/06 10:33:38;;;;;;;5.10;2.20;;;;;;;20.70;45.43;101341.81;5026089;28;20041;-66
2022/09/06 10:36:05;;;;;;;7.30;2.05;;;;;;;20.68;45.74;101330.41;5045433;28;20408;-65
2022/09/06 10:38:57;;;;;;;8.00;3.00;;;;;;;20.76;45.11;101332.38;5022152;28;20049;-66
2022/09/06 10:41:57;;;;;;;4.22;2.65;;;;;;;20.83;44.86;101322.81;5029441;28;20045;-66
2022/09/06 10:44:55;;;;;;;5.90;2.55;;;;;;;20.76;44.98;101327.03;5031350;28;21833;-66
2022/09/06 10:47:29;;;;;;;8.35;2.55;;;;;;;20.76;44.94;101324.34;5044350;28;20493;-66
2022/09/06 10:49:58;;;;;;;3.47;2.42;;;;;;;20.74;44.87;101320.00;5055502;22;20048;-84
2022/09/06 10:52:36;;;;;;;6.15;2.67;;;;;;;20.79;44.48;101311.53;5057988;28;20383;-84
2022/09/06 10:55:05;;;;;;;6.75;2.60;;;;;;;20.75;44.65;101312.81;5064808;28;20191;-83
2022/09/06 10:57:41;;;;;;;8.63;2.22;;;;;;;20.71;45.43;101303.38;5050517;28;20044;-84
2022/09/06 11:00:31;;;;;;;13.30;2.63;;;;;;;20.78;45.47;101309.84;5049418;28;20171;-84
2022/09/06 11:03:09;;;;;;;5.20;2.60;;;;;;;20.82;45.10;101303.25;5038523;28;20546;-84
2022/09/06 11:06:02;;;;;;;6.60;2.33;;;;;;;20.96;44.50;101299.28;5062583;28;20111;-85
2022/09/06 11:08:46;;;;;;;5.82;2.13;;;;;;;21.02;44.76;101304.06;5050333;28;20074;-85
2022/09/06 11:11:19;;;;;;;11.05;2.65;;;;;;;21.13;44.81;101301.25;5047941;28;20043;-84
2022/09/06 11:13:47;;;;;;;10.68;3.10;;;;;;;21.26;44.64;101302.81;5068211;28;20040;-84
2022/09/06 11:16:22;;;;;;;5.20;2.80;;;;;;;21.31;44.22;101295.19;5052249;28;20044;-84
2022/09/06 11:18:56;;;;;;;5.85;2.45;;;;;;;21.34;43.98;101301.09;5071362;28;20069;-84
2022/09/06 11:21:41;;;;;;;5.55;2.70;;;;;;;21.44;44.31;101307.31;5034831;28;20036;-85
2022/09/06 11:24:15;;;;;;;6.80;3.00;;;;;;;21.52;44.30;101303.88;5067027;28;20055;-85
2022/09/06 11:26:57;;;;;;;6.07;2.90;;;;;;;21.57;43.89;101300.78;5071484;28;20079;-84
2022/09/06 11:29:27;;;;;;;6.43;2.63;;;;;;;21.53;43.33;101288.69;5062503;28;20063;-85
2022/09/06 11:32:00;;;;;;;7.50;2.55;;;;;;;21.54;43.64;101295.72;5087448;28;20042;-85
2022/09/06 11:34:56;;;;;;;9.93;2.53;;;;;;;21.47;43.71;101296.28;5078738;28;20117;-84
2022/09/06 11:37:29;;;;;;;8.23;2.40;;;;;;;21.48;44.21;101286.44;5070287;28;20121;-84
2022/09/06 11:40:07;;;;;;;8.48;2.22;;;;;;;21.49;43.62;101282.78;5053329;28;20044;-85
2022/09/06 11:42:58;;;;;;;6.43;2.50;;;;;;;21.45;43.53;101287.56;5067396;28;20058;-85
2022/09/06 11:45:44;;;;;;;5.75;2.20;;;;;;;21.44;43.74;101282.38;5054315;28;20075;-85
2022/09/06 11:48:32;;;;;;;7.97;2.50;;;;;;;21.50;43.84;101279.09;5064370;28;20044;-85
2022/09/06 11:51:06;;;;;;;5.15;2.33;;;;;;;21.48;43.79;101283.75;5070829;28;20526;-85
2022/09/06 11:53:56;;;;;;;4.88;2.50;;;;;;;21.48;43.51;101281.94;5042982;28;20830;-85